Time;durP1;ratioP1;P1;durP2;ratioP2;P2;SDS_P1;SDS_P2;PMS_P1;PMS_P2;Temp;Humidity;BMP_temperature;BMP_pressure;BME280_temperature;BME280_humidity;BME280_pressure;Samples;Min_cycle;Max_cycle;Signal;HPM_P1;HPM_P2
2023/06/14 00:02:03;;;;;;;6.80;2.50;;;17.20;65.50;;;;;;5031133;28;20042;-65
2023/06/14 00:04:29;;;;;;;5.10;2.30;;;17.10;65.80;;;;;;5031285;28;20087;-64
2023/06/14 00:06:56;;;;;;;7.30;2.78;;;17.10;66.00;;;;;;5031660;28;20064;-65
2023/06/14 00:09:23;;;;;;;6.28;3.13;;;17.10;66.20;;;;;;5013425;28;20471;-64
2023/06/14 00:11:48;;;;;;;5.88;2.28;;;17.10;66.50;;;;;;5031217;28;20519;-64
2023/06/14 00:14:14;;;;;;;5.32;2.53;;;17.00;66.60;;;;;;5031306;28;20042;-64
2023/06/14 00:16:42;;;;;;;3.72;2.45;;;17.00;66.80;;;;;;5013641;28;20527;-64
2023/06/14 00:19:10;;;;;;;5.80;2.65;;;17.00;67.00;;;;;;5031265;28;20163;-64
2023/06/14 00:21:39;;;;;;;3.58;2.45;;;16.90;67.20;;;;;;5031270;28;20045;-64
2023/06/14 00:24:05;;;;;;;6.88;2.80;;;16.90;67.50;;;;;;5031210;28;20042;-64
2023/06/14 00:26:30;;;;;;;6.35;2.45;;;16.90;67.60;;;;;;5030690;28;20049;-64
2023/06/14 00:28:56;;;;;;;4.95;2.45;;;16.90;67.80;;;;;;5031294;28;20033;-64
2023/06/14 00:31:22;;;;;;;5.47;2.70;;;16.90;67.90;;;;;;5031254;28;20037;-64
2023/06/14 00:33:48;;;;;;;5.38;2.42;;;16.90;68.20;;;;;;5030887;28;20037;-64
2023/06/14 00:36:14;;;;;;;7.70;2.95;;;16.90;68.40;;;;;;5031111;28;20048;-64
2023/06/14 00:38:40;;;;;;;5.70;2.70;;;16.80;68.50;;;;;;5031291;28;20124;-64
2023/06/14 00:41:06;;;;;;;5.80;2.55;;;16.80;68.80;;;;;;5030749;28;20480;-64
2023/06/14 00:43:31;;;;;;;7.38;3.17;;;16.80;69.10;;;;;;5030700;28;20403;-64
2023/06/14 00:45:58;;;;;;;10.05;2.72;;;16.70;69.30;;;;;;5031193;28;20438;-64
2023/06/14 00:48:24;;;;;;;6.03;2.42;;;16.70;69.60;;;;;;5030981;28;20076;-64
2023/06/14 00:50:52;;;;;;;5.97;2.67;;;16.70;69.80;;;;;;5031182;28;20095;-64
2023/06/14 00:53:20;;;;;;;7.75;2.60;;;16.60;70.10;;;;;;5013379;28;20103;-64
2023/06/14 00:55:46;;;;;;;6.05;2.40;;;16.60;70.50;;;;;;5031447;28;20107;-64
2023/06/14 00:58:13;;;;;;;4.57;2.60;;;16.50;70.70;;;;;;5034431;28;20041;-64
2023/06/14 01:00:39;;;;;;;4.25;2.78;;;16.50;71.00;;;;;;5017052;28;20042;-64
2023/06/14 01:03:04;;;;;;;5.93;2.22;;;16.40;71.40;;;;;;5034574;28;20380;-64
2023/06/14 01:05:31;;;;;;;7.63;2.65;;;16.40;71.60;;;;;;5000531;28;20050;-65
2023/06/14 01:08:02;;;;;;;7.55;2.40;;;16.40;72.10;;;;;;5034543;28;20120;-64
2023/06/14 01:11:07;;;;;;;4.60;2.47;;;16.30;72.50;;;;;;5034508;28;20113;-65
2023/06/14 01:13:35;;;;;;;3.75;2.28;;;16.30;73.00;;;;;;5033488;28;20045;-64
2023/06/14 01:16:02;;;;;;;4.72;2.22;;;16.20;73.30;;;;;;5016817;28;20522;-64
2023/06/14 01:18:32;;;;;;;5.60;2.60;;;16.20;73.70;;;;;;5034295;28;20045;-64
2023/06/14 01:20:57;;;;;;;6.28;3.08;;;16.20;74.10;;;;;;5034326;28;20120;-64
2023/06/14 01:23:24;;;;;;;6.47;2.60;;;16.20;74.50;;;;;;5033691;28;20133;-64
2023/06/14 01:25:53;;;;;;;6.05;2.63;;;16.10;74.90;;;;;;5034429;28;20045;-64
2023/06/14 01:28:20;;;;;;;7.82;3.03;;;16.10;75.40;;;;;;5034078;28;20071;-64
2023/06/14 01:30:53;;;;;;;4.68;2.67;;;16.00;75.80;;;;;;5034324;28;20041;-64
2023/06/14 01:33:23;;;;;;;5.22;3.03;;;16.00;76.40;;;;;;5033691;28;20042;-64
2023/06/14 01:35:54;;;;;;;7.22;2.42;;;16.00;76.80;;;;;;5033983;28;20411;-64
2023/06/14 01:38:22;;;;;;;3.60;2.63;;;15.90;77.10;;;;;;5034146;28;20077;-64
2023/06/14 01:40:48;;;;;;;7.18;2.70;;;16.00;77.70;;;;;;5033671;28;20037;-64
2023/06/14 01:43:15;;;;;;;4.38;2.40;;;15.90;78.10;;;;;;5033466;28;20555;-64
2023/06/14 01:45:42;;;;;;;7.43;2.60;;;15.90;78.60;;;;;;5033722;28;20458;-64
2023/06/14 01:48:08;;;;;;;3.72;2.58;;;15.90;79.20;;;;;;5033274;28;20123;-64
2023/06/14 01:50:34;;;;;;;6.00;2.70;;;15.90;79.80;;;;;;5033902;28;20460;-64
2023/06/14 01:53:00;;;;;;;6.10;2.50;;;15.90;80.40;;;;;;5033494;28;20128;-64
2023/06/14 01:55:26;;;;;;;5.97;2.92;;;15.80;80.90;;;;;;5033440;28;20041;-64
2023/06/14 01:57:52;;;;;;;7.65;2.50;;;15.80;81.40;;;;;;5015623;28;20398;-64
2023/06/14 02:00:18;;;;;;;3.83;2.60;;;15.80;82.20;;;;;;5031439;28;20088;-64
2023/06/14 02:02:44;;;;;;;4.00;2.50;;;15.80;82.80;;;;;;5027709;28;20049;-64
2023/06/14 02:05:10;;;;;;;5.18;2.78;;;15.70;83.60;;;;;;5014015;28;20029;-64
2023/06/14 02:07:36;;;;;;;5.05;2.55;;;15.70;84.60;;;;;;5032850;28;20029;-64
2023/06/14 02:10:02;;;;;;;5.47;2.63;;;15.60;85.30;;;;;;5033554;28;20076;-64
2023/06/14 02:12:28;;;;;;;5.63;2.70;;;15.60;86.20;;;;;;5032993;28;20045;-64
2023/06/14 02:14:54;;;;;;;6.40;2.65;;;15.60;87.10;;;;;;5032844;28;20029;-64
2023/06/14 02:17:20;;;;;;;6.10;2.65;;;15.60;87.90;;;;;;5015118;28;20100;-64
2023/06/14 02:19:46;;;;;;;4.97;2.30;;;15.50;88.90;;;;;;5033087;28;20547;-64
2023/06/14 02:22:11;;;;;;;5.72;2.95;;;15.50;89.80;;;;;;5032662;28;20045;-64
2023/06/14 02:24:37;;;;;;;4.85;2.55;;;15.40;90.30;;;;;;5032739;28;20038;-64
2023/06/14 02:27:03;;;;;;;6.15;2.45;;;15.40;90.80;;;;;;5032965;28;20116;-64
2023/06/14 02:29:29;;;;;;;6.10;2.40;;;15.40;91.30;;;;;;5033125;28;20029;-64
2023/06/14 02:31:54;;;;;;;5.43;2.63;;;15.40;91.90;;;;;;5032424;28;20059;-64
2023/06/14 02:34:21;;;;;;;6.22;2.80;;;15.40;92.40;;;;;;5032102;28;20088;-64
2023/06/14 02:36:47;;;;;;;7.43;2.70;;;15.30;92.80;;;;;;5033070;28;20041;-64
2023/06/14 02:39:14;;;;;;;4.88;2.75;;;15.30;93.30;;;;;;5032411;28;20399;-64
2023/06/14 02:41:39;;;;;;;4.88;2.55;;;15.30;93.90;;;;;;5032812;28;20403;-64
2023/06/14 02:44:06;;;;;;;6.43;3.30;;;15.30;94.40;;;;;;5032084;28;20045;-64
2023/06/14 02:46:32;;;;;;;5.28;3.13;;;15.20;94.90;;;;;;5032258;28;20442;-64
2023/06/14 02:48:57;;;;;;;3.97;2.63;;;15.20;95.40;;;;;;5032390;28;20045;-64
2023/06/14 02:51:23;;;;;;;6.50;3.00;;;15.20;96.00;;;;;;5032775;28;20399;-64
2023/06/14 02:53:49;;;;;;;6.20;2.92;;;15.10;96.50;;;;;;5032440;28;20056;-64
2023/06/14 02:56:17;;;;;;;9.35;3.70;;;15.00;97.10;;;;;;5032022;28;20049;-64
2023/06/14 02:58:43;;;;;;;6.32;2.90;;;14.90;97.70;;;;;;5014234;28;20087;-64
2023/06/14 03:01:12;;;;;;;7.20;2.50;;;15.00;98.20;;;;;;5032348;28;20037;-64
2023/06/14 03:03:38;;;;;;;8.43;3.00;;;14.90;98.80;;;;;;5014267;28;20116;-64
2023/06/14 03:06:04;;;;;;;8.15;3.25;;;14.90;99.20;;;;;;5032092;28;20112;-64
2023/06/14 03:08:38;;;;;;;5.97;2.72;;;14.90;99.90;;;;;;5014206;28;20573;-64
2023/06/14 03:11:08;;;;;;;5.00;2.92;;;14.90;99.90;;;;;;5014916;28;20116;-64
2023/06/14 03:13:35;;;;;;;9.43;3.00;;;14.80;99.90;;;;;;5013675;28;20053;-64
2023/06/14 03:16:03;;;;;;;11.48;3.63;;;14.80;99.90;;;;;;5032035;28;20329;-64
2023/06/14 03:18:30;;;;;;;11.07;3.20;;;14.80;99.90;;;;;;5031874;28;20121;-64
2023/06/14 03:20:57;;;;;;;6.30;3.10;;;14.80;99.90;;;;;;5032140;28;20045;-64
2023/06/14 03:23:25;;;;;;;4.05;2.78;;;14.80;99.90;;;;;;5031849;28;20410;-64
2023/06/14 03:25:51;;;;;;;5.07;3.05;;;14.70;99.90;;;;;;5014297;28;20080;-64
2023/06/14 03:28:17;;;;;;;17.13;3.47;;;14.70;99.90;;;;;;5031601;28;20396;-64
2023/06/14 03:30:43;;;;;;;6.07;2.85;;;14.70;99.90;;;;;;5014614;28;20048;-64
2023/06/14 03:33:09;;;;;;;4.75;2.55;;;14.70;99.90;;;;;;5032052;28;20048;-64
2023/06/14 03:35:34;;;;;;;22.23;3.92;;;14.80;99.90;;;;;;5031780;28;20041;-64
2023/06/14 03:38:00;;;;;;;7.85;3.05;;;14.80;99.90;;;;;;5031496;28;20045;-64
2023/06/14 03:40:27;;;;;;;10.85;3.20;;;14.90;99.90;;;;;;5031908;28;20077;-64
2023/06/14 03:42:54;;;;;;;22.67;4.00;;;14.90;99.90;;;;;;5031550;28;20044;-64
2023/06/14 03:45:20;;;;;;;6.70;3.30;;;14.90;99.90;;;;;;5031163;28;20160;-64
2023/06/14 03:47:46;;;;;;;6.63;2.95;;;14.90;99.90;;;;;;5031792;28;20399;-64
2023/06/14 03:50:12;;;;;;;6.25;2.95;;;15.00;99.90;;;;;;5031688;28;20029;-64
2023/06/14 03:52:38;;;;;;;6.03;3.25;;;15.00;99.90;;;;;;5031778;28;20510;-64
2023/06/14 03:55:04;;;;;;;4.60;2.72;;;14.90;99.90;;;;;;5031410;28;20490;-64
2023/06/14 03:57:30;;;;;;;6.45;3.15;;;14.90;99.90;;;;;;5046927;22;20041;-63
2023/06/14 03:59:56;;;;;;;4.07;3.22;;;14.90;99.90;;;;;;5047856;28;20502;-64
2023/06/14 04:02:22;;;;;;;7.53;3.40;;;14.90;99.90;;;;;;5043027;28;20061;-64
2023/06/14 04:04:48;;;;;;;5.70;3.15;;;14.90;99.90;;;;;;5042164;28;20035;-64
2023/06/14 04:07:18;;;;;;;5.10;3.13;;;15.00;99.90;;;;;;5031288;28;20037;-64
2023/06/14 04:09:44;;;;;;;4.53;3.35;;;15.00;99.90;;;;;;5011950;28;20064;-64
2023/06/14 04:12:11;;;;;;;7.78;3.50;;;15.00;99.90;;;;;;5011244;28;20050;-64
2023/06/14 04:14:37;;;;;;;6.20;3.30;;;15.00;99.90;;;;;;5011216;28;20496;-64
2023/06/14 04:17:02;;;;;;;6.85;3.15;;;15.00;99.90;;;;;;5011581;28;20064;-64
2023/06/14 04:19:28;;;;;;;5.93;3.55;;;15.10;99.90;;;;;;5011803;28;20034;-64
2023/06/14 04:21:53;;;;;;;4.90;2.70;;;15.10;99.90;;;;;;5011835;28;20104;-64
2023/06/14 04:24:19;;;;;;;6.93;3.42;;;15.20;99.90;;;;;;5011447;28;20033;-64
2023/06/14 04:26:47;;;;;;;4.70;3.22;;;15.20;99.90;;;;;;5011490;28;20108;-64
2023/06/14 04:29:16;;;;;;;5.40;3.20;;;15.20;99.90;;;;;;5029941;28;20048;-64
2023/06/14 04:31:45;;;;;;;9.45;3.70;;;15.20;99.90;;;;;;5032971;28;20514;-64
2023/06/14 04:34:15;;;;;;;9.25;3.33;;;15.30;99.90;;;;;;5017356;28;20034;-64
2023/06/14 04:36:43;;;;;;;8.15;3.40;;;15.30;99.90;;;;;;5034638;28;20064;-64
2023/06/14 04:39:08;;;;;;;6.78;3.55;;;15.40;99.90;;;;;;5034566;28;20045;-64
2023/06/14 04:41:34;;;;;;;8.82;3.50;;;15.40;99.90;;;;;;5035267;28;20121;-64
2023/06/14 04:44:03;;;;;;;5.00;3.10;;;15.40;99.90;;;;;;5034555;28;20553;-64
2023/06/14 04:46:30;;;;;;;5.50;3.20;;;15.50;99.90;;;;;;5034804;28;20046;-64
2023/06/14 04:48:56;;;;;;;5.97;3.28;;;15.60;99.90;;;;;;5034879;28;20033;-64
2023/06/14 04:51:29;;;;;;;6.93;3.40;;;15.70;99.90;;;;;;5034079;28;20052;-63
2023/06/14 04:53:58;;;;;;;6.50;3.50;;;15.70;99.90;;;;;;5034118;28;20124;-64
2023/06/14 04:56:25;;;;;;;5.03;3.10;;;15.90;99.90;;;;;;5034885;28;20047;-64
2023/06/14 04:58:51;;;;;;;7.97;3.50;;;15.90;99.90;;;;;;5034604;28;20060;-64
2023/06/14 05:01:17;;;;;;;5.63;3.35;;;16.00;99.90;;;;;;5034603;28;20038;-64
2023/06/14 05:03:44;;;;;;;5.95;3.72;;;16.20;99.90;;;;;;5034370;28;20132;-64
2023/06/14 05:06:11;;;;;;;8.35;3.88;;;16.30;99.90;;;;;;5016641;28;20099;-64
2023/06/14 05:08:37;;;;;;;7.40;4.00;;;16.50;99.90;;;;;;5034538;28;20112;-64
2023/06/14 05:11:03;;;;;;;6.10;3.80;;;16.50;99.90;;;;;;5034672;28;20112;-64
2023/06/14 05:13:28;;;;;;;7.65;3.58;;;16.60;99.90;;;;;;5034193;28;20491;-63
2023/06/14 05:15:54;;;;;;;4.97;3.38;;;16.80;99.90;;;;;;5016840;28;20045;-63
2023/06/14 05:18:20;;;;;;;5.20;3.20;;;16.90;99.90;;;;;;5033871;28;20068;-63
2023/06/14 05:20:46;;;;;;;7.47;3.78;;;17.00;99.90;;;;;;5033964;28;20057;-63
2023/06/14 05:23:14;;;;;;;5.75;3.60;;;17.10;99.90;;;;;;5034091;28;20042;-63
2023/06/14 05:25:44;;;;;;;6.32;3.90;;;17.20;99.90;;;;;;5034200;28;20038;-63
2023/06/14 05:28:11;;;;;;;6.78;2.95;;;17.30;99.90;;;;;;5034221;28;20467;-63
2023/06/14 05:30:38;;;;;;;5.47;3.42;;;17.30;99.90;;;;;;5034194;28;20052;-63
2023/06/14 05:33:03;;;;;;;5.10;3.25;;;17.60;99.90;;;;;;5034157;28;20410;-63
2023/06/14 05:35:29;;;;;;;15.88;4.05;;;17.80;99.90;;;;;;5016199;28;20116;-63
2023/06/14 05:37:55;;;;;;;4.22;3.00;;;18.00;99.90;;;;;;5034162;28;20116;-63
2023/06/14 05:40:20;;;;;;;6.20;3.20;;;18.20;99.90;;;;;;5033888;28;20034;-63
2023/06/14 05:42:46;;;;;;;9.98;3.58;;;18.30;99.90;;;;;;5031995;28;20033;-63
2023/06/14 05:45:12;;;;;;;7.55;3.55;;;18.40;99.90;;;;;;5015545;28;20033;-63
2023/06/14 05:47:37;;;;;;;5.97;3.25;;;18.50;99.90;;;;;;5016247;28;20045;-63
2023/06/14 05:50:03;;;;;;;7.32;3.20;;;18.50;99.90;;;;;;5033607;28;20037;-63
2023/06/14 05:52:29;;;;;;;6.95;3.03;;;18.50;99.90;;;;;;5033512;28;20040;-63
2023/06/14 05:54:55;;;;;;;5.40;3.03;;;18.60;99.90;;;;;;5033207;28;20108;-63
2023/06/14 05:57:21;;;;;;;9.77;3.38;;;18.60;99.90;;;;;;5033597;28;20519;-63
2023/06/14 05:59:46;;;;;;;7.57;3.65;;;18.60;99.90;;;;;;5015171;28;20049;-63
2023/06/14 06:02:12;;;;;;;4.97;3.10;;;18.70;99.90;;;;;;5033528;28;20044;-63
2023/06/14 06:04:37;;;;;;;5.10;2.90;;;18.80;99.60;;;;;;5032769;28;20407;-63
2023/06/14 06:07:03;;;;;;;5.35;3.25;;;18.90;99.40;;;;;;5033664;28;20044;-63
2023/06/14 06:09:29;;;;;;;5.22;2.97;;;19.00;99.10;;;;;;5014893;28;20128;-64
2023/06/14 06:11:55;;;;;;;4.95;2.65;;;19.10;98.90;;;;;;5033476;28;20033;-64
2023/06/14 06:14:20;;;;;;;5.00;3.25;;;19.20;97.90;;;;;;5033007;28;20030;-64
2023/06/14 06:16:46;;;;;;;5.55;3.45;;;19.30;97.50;;;;;;5032733;28;20045;-63
2023/06/14 06:19:12;;;;;;;6.95;3.60;;;19.40;96.90;;;;;;5032864;28;20072;-63
2023/06/14 06:21:37;;;;;;;11.70;3.55;;;19.50;96.40;;;;;;5033193;28;20403;-63
2023/06/14 06:24:05;;;;;;;7.20;2.78;;;19.60;96.10;;;;;;5032922;28;20073;-63
2023/06/14 06:26:31;;;;;;;3.42;2.63;;;19.70;95.60;;;;;;5032969;28;20037;-63
2023/06/14 06:28:58;;;;;;;4.68;2.72;;;19.90;95.00;;;;;;5032878;28;20449;-64
2023/06/14 06:31:24;;;;;;;5.13;2.72;;;20.00;94.00;;;;;;5032059;28;20471;-64
2023/06/14 06:33:50;;;;;;;4.15;2.40;;;20.00;93.40;;;;;;5032514;28;20037;-64
2023/06/14 06:36:16;;;;;;;5.53;2.50;;;20.20;92.60;;;;;;5032686;28;20081;-64
2023/06/14 06:38:42;;;;;;;4.35;2.42;;;20.30;92.20;;;;;;5033006;28;20442;-63
2023/06/14 06:41:07;;;;;;;6.20;2.85;;;20.40;91.50;;;;;;5014321;28;20041;-63
2023/06/14 06:43:33;;;;;;;5.57;2.72;;;20.50;91.20;;;;;;5032400;28;20446;-63
2023/06/14 06:45:58;;;;;;;4.22;2.55;;;20.60;90.70;;;;;;5032679;28;20042;-64
2023/06/14 06:48:24;;;;;;;3.17;2.63;;;20.80;90.10;;;;;;5031962;28;20092;-63
2023/06/14 06:50:51;;;;;;;3.65;2.53;;;20.90;89.10;;;;;;5032273;28;20475;-64
2023/06/14 06:53:18;;;;;;;4.68;2.55;;;21.00;87.80;;;;;;5032229;28;20458;-64
2023/06/14 06:55:44;;;;;;;3.75;2.35;;;21.20;87.60;;;;;;5032305;28;20099;-63
2023/06/14 06:58:09;;;;;;;7.10;2.72;;;21.20;85.90;;;;;;5031804;28;20038;-63
2023/06/14 07:00:35;;;;;;;3.70;2.30;;;21.20;83.90;;;;;;5014385;28;20106;-63
2023/06/14 07:03:01;;;;;;;5.18;2.30;;;21.40;84.00;;;;;;5032257;28;20052;-64
2023/06/14 07:05:26;;;;;;;6.68;2.40;;;21.40;83.50;;;;;;5031634;28;20068;-64
2023/06/14 07:07:52;;;;;;;7.80;2.50;;;21.50;82.30;;;;;;5032232;28;20040;-64
2023/06/14 07:10:18;;;;;;;5.20;2.65;;;21.50;81.80;;;;;;5032459;28;20034;-64
2023/06/14 07:12:44;;;;;;;6.28;2.60;;;21.50;81.30;;;;;;5014514;28;20095;-64
2023/06/14 07:15:10;;;;;;;5.00;2.35;;;21.60;80.20;;;;;;5031952;28;20037;-64
2023/06/14 07:17:36;;;;;;;2.95;2.30;;;21.60;79.50;;;;;;5031911;28;20041;-64
2023/06/14 07:20:12;;;;;;;4.68;2.30;;;21.70;78.80;;;;;;5032119;28;20048;-64
2023/06/14 07:22:41;;;;;;;2.85;2.30;;;21.80;78.40;;;;;;5032054;28;20494;-65
2023/06/14 07:25:14;;;;;;;3.45;2.28;;;21.90;78.10;;;;;;5032011;28;20037;-64
2023/06/14 07:27:45;;;;;;;3.85;2.55;;;21.90;75.90;;;;;;5031788;28;20029;-65
2023/06/14 07:30:11;;;;;;;2.78;2.35;;;22.00;75.50;;;;;;5031963;28;20040;-65
2023/06/14 07:32:36;;;;;;;4.65;2.22;;;22.10;75.30;;;;;;5014607;28;20056;-64
2023/06/14 07:35:03;;;;;;;4.47;2.20;;;22.20;75.20;;;;;;5031908;28;20049;-65
2023/06/14 07:37:28;;;;;;;5.72;2.47;;;22.30;74.80;;;;;;5032086;28;20070;-64
2023/06/14 07:39:54;;;;;;;5.93;2.53;;;22.40;74.20;;;;;;5031874;28;20514;-64
2023/06/14 07:42:20;;;;;;;4.13;2.30;;;22.60;75.30;;;;;;5031587;28;20037;-64
2023/06/14 07:44:46;;;;;;;2.88;2.00;;;22.60;74.00;;;;;;5013866;28;20046;-64
2023/06/14 07:47:12;;;;;;;6.90;2.55;;;22.70;74.00;;;;;;5014299;28;20407;-65
2023/06/14 07:49:37;;;;;;;5.28;2.42;;;22.80;72.10;;;;;;5032155;28;20100;-64
2023/06/14 07:52:04;;;;;;;2.50;1.73;;;22.70;69.80;;;;;;5031879;28;20033;-65
2023/06/14 07:54:31;;;;;;;5.35;2.17;;;22.80;69.20;;;;;;5013896;28;20056;-64
2023/06/14 07:56:58;;;;;;;4.40;2.17;;;22.90;68.80;;;;;;5031305;28;20466;-64
2023/06/14 07:59:24;;;;;;;3.28;1.95;;;23.10;68.60;;;;;;5031635;28;20056;-64
2023/06/14 08:01:49;;;;;;;5.05;2.17;;;23.20;67.10;;;;;;5014224;28;20487;-64
2023/06/14 08:04:15;;;;;;;2.65;2.00;;;23.40;66.30;;;;;;5030951;28;20044;-64
2023/06/14 08:06:43;;;;;;;3.58;2.35;;;23.30;66.80;;;;;;5017333;28;20551;-64
2023/06/14 08:09:10;;;;;;;4.53;1.80;;;23.40;65.60;;;;;;5017722;28;20041;-64
2023/06/14 08:11:36;;;;;;;6.78;2.13;;;23.50;65.30;;;;;;5034934;28;20040;-64
2023/06/14 08:14:02;;;;;;;3.72;1.65;;;23.50;63.90;;;;;;5035781;28;20038;-64
2023/06/14 08:16:27;;;;;;;2.92;1.55;;;23.60;64.70;;;;;;5017684;28;20049;-65
2023/06/14 08:18:53;;;;;;;6.40;1.80;;;23.70;63.30;;;;;;5035242;28;20037;-65
2023/06/14 08:21:19;;;;;;;3.72;1.90;;;23.80;62.30;;;;;;5035529;28;20064;-65
2023/06/14 08:23:44;;;;;;;5.70;1.70;;;23.80;61.50;;;;;;5035632;28;20038;-65
2023/06/14 08:26:10;;;;;;;3.38;1.77;;;23.90;62.10;;;;;;5017474;28;20176;-64
2023/06/14 08:28:36;;;;;;;2.97;1.50;;;24.00;62.00;;;;;;5035201;28;20045;-65
2023/06/14 08:31:02;;;;;;;2.75;1.65;;;24.10;61.30;;;;;;5017555;28;20037;-65
2023/06/14 08:33:27;;;;;;;2.60;1.48;;;24.10;60.90;;;;;;5035076;28;20053;-64
2023/06/14 08:35:53;;;;;;;6.38;1.77;;;24.20;59.60;;;;;;5035255;28;20060;-64
2023/06/14 08:38:19;;;;;;;2.10;1.65;;;24.20;59.70;;;;;;5035004;28;20084;-65
2023/06/14 08:40:50;;;;;;;4.45;1.58;;;24.20;59.10;;;;;;5034886;28;20029;-65
2023/06/14 08:43:15;;;;;;;3.75;1.48;;;24.20;59.00;;;;;;5017114;28;20049;-65
2023/06/14 08:45:41;;;;;;;3.35;1.52;;;24.20;59.30;;;;;;5034975;28;20033;-65
2023/06/14 08:48:07;;;;;;;5.63;1.48;;;24.20;59.00;;;;;;5034868;28;20049;-64
2023/06/14 08:50:36;;;;;;;3.15;1.80;;;24.30;58.40;;;;;;5034982;28;20034;-64
2023/06/14 08:53:03;;;;;;;3.70;1.55;;;24.30;57.70;;;;;;5034844;28;20095;-64
2023/06/14 08:55:30;;;;;;;4.90;1.70;;;24.40;57.60;;;;;;5034438;28;20120;-64
2023/06/14 08:58:00;;;;;;;2.70;1.30;;;24.50;58.00;;;;;;5034553;28;20049;-64
2023/06/14 09:00:26;;;;;;;3.70;1.80;;;24.60;57.60;;;;;;5035020;28;20407;-65
2023/06/14 09:02:57;;;;;;;5.32;1.80;;;24.50;57.50;;;;;;5034429;28;20832;-64
2023/06/14 09:05:23;;;;;;;;;;;24.40;57.40;;;;;;5017389;28;20487;-64
2023/06/14 09:07:50;;;;;;;2.88;1.38;;;24.40;56.40;;;;;;5016847;28;20310;-65
2023/06/14 09:10:16;;;;;;;2.65;1.67;;;24.40;56.30;;;;;;5034716;28;20095;-64
2023/06/14 09:12:42;;;;;;;2.40;1.60;;;24.50;55.90;;;;;;5034681;28;20041;-64
2023/06/14 09:15:09;;;;;;;2.92;1.55;;;24.50;55.40;;;;;;5016757;28;20506;-64
2023/06/14 09:17:35;;;;;;;2.65;1.80;;;24.50;54.90;;;;;;5015620;28;20560;-64
2023/06/14 09:20:10;;;;;;;3.50;1.60;;;24.50;55.30;;;;;;5034412;28;20037;-64
2023/06/14 09:22:38;;;;;;;2.88;1.60;;;24.60;54.50;;;;;;5016725;28;20123;-64
2023/06/14 09:25:05;;;;;;;3.80;1.60;;;24.70;55.10;;;;;;5016355;28;20041;-64
2023/06/14 09:27:31;;;;;;;4.30;1.70;;;24.70;55.20;;;;;;5016318;28;20037;-64
2023/06/14 09:29:57;;;;;;;6.80;1.80;;;24.80;55.30;;;;;;5034219;28;20430;-65
2023/06/14 09:32:22;;;;;;;3.42;1.55;;;24.90;54.40;;;;;;5034218;28;20108;-64
2023/06/14 09:34:49;;;;;;;2.40;1.50;;;24.90;54.00;;;;;;5033826;28;20033;-64
2023/06/14 09:37:31;;;;;;;2.13;1.52;;;24.90;53.80;;;;;;5033904;28;20037;-64
2023/06/14 09:39:57;;;;;;;3.10;1.40;;;25.00;53.30;;;;;;5016396;28;20503;-64
2023/06/14 09:42:25;;;;;;;2.67;1.45;;;24.90;53.40;;;;;;5033969;28;20042;-64
2023/06/14 09:44:53;;;;;;;10.50;1.75;;;25.00;53.00;;;;;;5015737;28;20199;-64
2023/06/14 09:47:20;;;;;;;3.53;1.30;;;24.90;52.20;;;;;;5015614;28;20125;-64
2023/06/14 09:49:45;;;;;;;7.53;1.88;;;24.80;52.20;;;;;;5033664;28;20108;-64
2023/06/14 09:52:15;;;;;;;5.68;1.60;;;24.90;52.80;;;;;;5015917;28;20172;-64
2023/06/14 09:54:42;;;;;;;4.60;1.70;;;25.00;52.30;;;;;;5033645;28;20120;-64
2023/06/14 09:57:11;;;;;;;2.88;1.42;;;24.90;52.00;;;;;;5033814;28;20112;-64
2023/06/14 09:59:45;;;;;;;9.20;2.53;;;24.90;51.60;;;;;;5015910;28;20069;-64
2023/06/14 10:02:35;;;;;;;3.65;1.55;;;25.00;51.20;;;;;;5015072;28;20128;-64
2023/06/14 10:05:11;;;;;;;3.28;1.42;;;24.80;50.70;;;;;;5015813;28;20049;-64
2023/06/14 10:07:44;;;;;;;4.85;1.75;;;24.80;51.50;;;;;;5033483;28;20077;-64
2023/06/14 10:10:10;;;;;;;2.17;1.40;;;25.00;51.00;;;;;;5032875;28;20041;-64
2023/06/14 10:12:36;;;;;;;4.55;1.67;;;25.10;51.00;;;;;;5032875;28;20056;-64
2023/06/14 10:15:02;;;;;;;2.80;1.63;;;25.10;50.70;;;;;;5015728;28;20045;-64
2023/06/14 10:17:48;;;;;;;2.35;1.55;;;25.20;50.60;;;;;;5033184;28;20064;-64
2023/06/14 10:20:32;;;;;;;2.95;1.50;;;25.30;50.90;;;;;;5015478;28;20049;-64
2023/06/14 10:23:13;;;;;;;3.33;1.60;;;25.50;51.40;;;;;;5032962;28;20053;-64
2023/06/14 10:25:39;;;;;;;4.60;1.50;;;25.60;50.40;;;;;;5033213;28;20399;-65
2023/06/14 10:28:27;;;;;;;6.28;1.80;;;25.70;50.20;;;;;;5014976;28;20037;-65
2023/06/14 10:31:04;;;;;;;2.22;1.55;;;25.80;49.10;;;;;;5033142;28;20040;-65
2023/06/14 10:33:30;;;;;;;2.55;1.30;;;25.80;49.60;;;;;;5032703;28;20380;-65
2023/06/14 10:36:15;;;;;;;10.23;1.70;;;25.80;50.00;;;;;;5033091;28;20045;-64
2023/06/14 10:38:42;;;;;;;2.13;1.50;;;26.00;49.90;;;;;;5032741;28;20042;-64
2023/06/14 10:41:07;;;;;;;2.63;1.55;;;26.00;49.80;;;;;;5032971;28;20037;-65
2023/06/14 10:43:33;;;;;;;3.20;1.80;;;26.00;50.20;;;;;;5014712;28;20046;-65
2023/06/14 10:46:21;;;;;;;2.45;1.33;;;25.90;49.90;;;;;;5032667;28;20052;-65
2023/06/14 10:48:47;;;;;;;4.88;1.67;;;25.90;49.10;;;;;;5032667;28;20038;-64
2023/06/14 10:51:20;;;;;;;3.67;1.30;;;25.90;49.70;;;;;;5014588;28;20044;-64
2023/06/14 10:53:50;;;;;;;2.78;1.50;;;26.00;49.80;;;;;;5032070;28;20044;-64
2023/06/14 10:56:30;;;;;;;1.85;1.40;;;26.20;50.00;;;;;;5032517;28;20380;-64
2023/06/14 10:58:59;;;;;;;3.95;1.60;;;26.30;49.60;;;;;;5014260;28;20407;-64
2023/06/14 11:01:45;;;;;;;3.22;1.63;;;26.40;49.20;;;;;;5014836;28;20056;-65
2023/06/14 11:04:11;;;;;;;3.17;1.50;;;26.30;48.80;;;;;;5014164;28;20068;-64
2023/06/14 11:06:42;;;;;;;2.22;1.60;;;26.20;49.00;;;;;;5032785;28;20034;-64
2023/06/14 11:09:46;;;;;;;3.22;1.85;;;26.30;49.10;;;;;;5031617;28;20034;-64
2023/06/14 11:12:13;;;;;;;2.33;1.50;;;26.20;49.70;;;;;;5032383;28;20376;-64
2023/06/14 11:14:39;;;;;;;4.72;1.73;;;26.10;48.70;;;;;;5031990;28;20091;-65
2023/06/14 11:17:06;;;;;;;2.88;1.10;;;26.20;49.00;;;;;;5031636;28;20091;-64
2023/06/14 11:19:31;;;;;;;4.15;1.80;;;26.30;49.10;;;;;;5031667;28;20561;-64
2023/06/14 11:21:57;;;;;;;2.78;1.33;;;26.30;49.30;;;;;;5014693;28;20041;-64
2023/06/14 11:24:23;;;;;;;2.25;1.15;;;26.30;48.50;;;;;;5030985;28;20550;-65
2023/06/14 11:26:49;;;;;;;2.28;1.45;;;26.40;48.00;;;;;;5032170;28;20069;-64
2023/06/14 11:29:16;;;;;;;5.03;1.48;;;26.30;48.50;;;;;;5014017;28;20077;-64
2023/06/14 11:31:47;;;;;;;1.77;1.10;;;26.30;47.90;;;;;;5013391;28;20041;-65
2023/06/14 11:34:13;;;;;;;1.60;1.30;;;26.30;48.10;;;;;;5013652;28;20045;-65
2023/06/14 11:36:39;;;;;;;2.22;1.30;;;26.30;47.80;;;;;;5031876;28;20445;-65
2023/06/14 11:39:09;;;;;;;4.90;1.13;;;26.40;48.10;;;;;;5031848;28;20041;-65
2023/06/14 11:41:42;;;;;;;2.10;1.40;;;26.30;48.40;;;;;;5031531;28;20073;-66
2023/06/14 11:44:08;;;;;;;4.80;1.45;;;26.30;47.80;;;;;;5031492;28;20049;-65
2023/06/14 11:46:35;;;;;;;4.38;1.40;;;26.40;48.30;;;;;;5032100;28;20064;-65
2023/06/14 11:49:03;;;;;;;3.55;1.30;;;26.40;48.30;;;;;;5013854;28;20112;-65
2023/06/14 11:51:30;;;;;;;4.18;1.48;;;26.40;48.10;;;;;;5031924;28;20041;-65
2023/06/14 11:53:56;;;;;;;4.80;1.55;;;26.50;48.80;;;;;;5013793;28;20519;-65
2023/06/14 11:56:22;;;;;;;4.10;1.45;;;26.40;48.20;;;;;;5031834;28;20072;-65
2023/06/14 11:58:47;;;;;;;1.77;1.30;;;26.40;48.30;;;;;;5030641;28;20069;-64
2023/06/14 12:01:22;;;;;;;4.90;1.75;;;26.40;48.70;;;;;;5031853;28;20037;-64
2023/06/14 12:03:53;;;;;;;3.50;1.40;;;26.50;48.80;;;;;;5031538;28;20033;-65
2023/06/14 12:06:32;;;;;;;7.55;1.80;;;26.50;48.20;;;;;;5031289;28;20030;-65
2023/06/14 12:08:58;;;;;;;1.57;1.37;;;26.50;48.10;;;;;;5031163;28;20139;-65
2023/06/14 12:11:31;;;;;;;4.03;1.45;;;26.60;48.90;;;;;;5031759;28;20047;-65
2023/06/14 12:13:57;;;;;;;2.10;1.38;;;26.80;49.50;;;;;;5030858;28;20491;-64
2023/06/14 12:16:31;;;;;;;4.10;1.60;;;26.80;49.20;;;;;;5031555;28;20121;-65
2023/06/14 12:19:01;;;;;;;7.03;1.98;;;26.90;49.30;;;;;;5031233;28;20446;-65
2023/06/14 12:21:28;;;;;;;4.82;1.73;;;26.80;48.70;;;;;;5031086;28;20047;-66
2023/06/14 12:23:54;;;;;;;4.63;1.15;;;26.90;48.40;;;;;;5031191;28;20531;-64
2023/06/14 12:26:21;;;;;;;3.45;1.60;;;26.80;48.20;;;;;;5031706;28;20153;-65
2023/06/14 12:28:47;;;;;;;3.10;1.50;;;26.70;47.90;;;;;;5031363;28;20041;-64
2023/06/14 12:31:15;;;;;;;3.05;1.77;;;26.80;48.70;;;;;;5031394;28;20033;-64
2023/06/14 12:33:41;;;;;;;5.38;1.70;;;26.80;48.70;;;;;;5013468;28;20045;-64
2023/06/14 12:36:07;;;;;;;3.08;1.38;;;26.80;48.60;;;;;;5031241;28;20168;-65
2023/06/14 12:38:34;;;;;;;5.82;1.98;;;26.80;48.20;;;;;;5031334;28;20088;-65
2023/06/14 12:41:00;;;;;;;5.72;1.80;;;26.80;48.00;;;;;;5031265;28;20049;-65
2023/06/14 12:43:26;;;;;;;4.68;1.52;;;26.70;48.30;;;;;;5031121;28;20073;-65
2023/06/14 12:45:51;;;;;;;3.40;1.63;;;26.80;49.20;;;;;;5031066;28;20037;-65
2023/06/14 12:48:17;;;;;;;3.92;1.50;;;26.80;48.80;;;;;;5013447;28;20041;-64